createdAt,value
2023-07-17T00:01:01.298Z,100.00
2023-07-17T00:03:30.140Z,100.00
2023-07-17T00:05:58.939Z,100.00
2023-07-17T00:08:25.904Z,100.00
2023-07-17T00:10:53.201Z,100.00
2023-07-17T00:13:20.407Z,100.00
2023-07-17T00:15:47.305Z,100.00
2023-07-17T00:18:14.658Z,100.00
2023-07-17T00:20:42.109Z,100.00
2023-07-17T00:23:10.211Z,100.00
2023-07-17T00:25:36.893Z,100.00
2023-07-17T00:28:04.127Z,100.00
2023-07-17T00:30:31.245Z,100.00
2023-07-17T00:32:57.885Z,100.00
2023-07-17T00:35:24.782Z,100.00
2023-07-17T00:37:51.373Z,100.00
2023-07-17T00:40:18.064Z,100.00
2023-07-17T00:42:44.692Z,100.00
2023-07-17T00:45:11.527Z,100.00
2023-07-17T00:47:38.768Z,100.00
2023-07-17T00:50:06.377Z,100.00
2023-07-17T00:52:33.460Z,100.00
2023-07-17T00:55:00.449Z,100.00
2023-07-17T00:57:27.886Z,100.00
2023-07-17T00:59:54.665Z,100.00
2023-07-17T01:02:23.727Z,100.00
2023-07-17T01:04:50.999Z,100.00
2023-07-17T01:07:18.094Z,100.00
2023-07-17T01:09:44.870Z,100.00
2023-07-17T01:12:12.821Z,100.00
2023-07-17T01:14:40.774Z,100.00
2023-07-17T01:17:08.436Z,100.00
2023-07-17T01:19:35.483Z,100.00
2023-07-17T01:22:24.680Z,100.00
2023-07-17T01:24:51.628Z,100.00
2023-07-17T01:27:19.604Z,100.00
2023-07-17T01:29:46.535Z,100.00
2023-07-17T01:32:13.972Z,100.00
2023-07-17T01:34:42.689Z,100.00
2023-07-17T01:37:10.168Z,100.00
2023-07-17T01:39:36.807Z,100.00
2023-07-17T01:42:03.551Z,100.00
2023-07-17T01:44:31.640Z,100.00
2023-07-17T01:46:58.710Z,100.00
2023-07-17T01:49:25.422Z,100.00
2023-07-17T01:51:52.053Z,100.00
2023-07-17T01:54:18.683Z,100.00
2023-07-17T01:56:45.505Z,100.00
2023-07-17T01:59:12.344Z,100.00
2023-07-17T02:01:41.429Z,100.00
2023-07-17T02:04:08.675Z,100.00
2023-07-17T02:06:35.499Z,100.00
2023-07-17T02:09:05.688Z,100.00
2023-07-17T02:11:32.254Z,100.00
2023-07-17T02:13:59.119Z,100.00
2023-07-17T02:16:26.643Z,100.00
2023-07-17T02:18:54.808Z,100.00
2023-07-17T02:21:21.502Z,100.00
2023-07-17T02:23:48.493Z,100.00
2023-07-17T02:26:15.367Z,100.00
2023-07-17T02:28:42.108Z,100.00
2023-07-17T02:31:08.875Z,100.00
2023-07-17T02:33:35.636Z,100.00
2023-07-17T02:36:04.641Z,100.00
2023-07-17T02:38:31.306Z,100.00
2023-07-17T02:40:58.697Z,100.00
2023-07-17T02:43:25.543Z,100.00
2023-07-17T02:45:52.361Z,100.00
2023-07-17T02:48:19.647Z,100.00
2023-07-17T02:50:46.236Z,100.00
2023-07-17T02:53:12.878Z,100.00
2023-07-17T02:55:39.462Z,100.00
2023-07-17T02:58:06.654Z,100.00
2023-07-17T03:00:34.888Z,100.00
2023-07-17T03:03:02.021Z,100.00
2023-07-17T03:05:29.045Z,100.00
2023-07-17T03:07:56.168Z,100.00
2023-07-17T03:10:22.915Z,100.00
2023-07-17T03:12:49.553Z,100.00
2023-07-17T03:15:16.400Z,100.00
2023-07-17T03:17:43.407Z,100.00
2023-07-17T03:20:10.764Z,100.00
2023-07-17T03:22:38.575Z,100.00
2023-07-17T03:25:07.376Z,100.00
2023-07-17T03:27:34.538Z,100.00
2023-07-17T03:30:01.370Z,100.00
2023-07-17T03:32:32.604Z,100.00
2023-07-17T03:34:59.662Z,100.00
2023-07-17T03:37:26.806Z,100.00
2023-07-17T03:39:53.638Z,100.00
2023-07-17T03:42:20.261Z,100.00
2023-07-17T03:44:46.878Z,100.00
2023-07-17T03:47:13.581Z,100.00
2023-07-17T03:49:40.190Z,100.00
2023-07-17T03:52:07.443Z,100.00
2023-07-17T03:54:34.496Z,100.00
2023-07-17T03:57:01.102Z,100.00
2023-07-17T03:59:28.000Z,100.00
2023-07-17T04:01:54.633Z,100.00
2023-07-17T04:04:21.527Z,100.00
2023-07-17T04:06:48.825Z,100.00
2023-07-17T04:09:16.895Z,100.00
2023-07-17T04:11:47.407Z,100.00
2023-07-17T04:14:14.529Z,100.00
2023-07-17T04:16:41.226Z,100.00
2023-07-17T04:19:07.873Z,100.00
2023-07-17T04:21:35.077Z,100.00
2023-07-17T04:24:02.228Z,100.00
2023-07-17T04:26:30.619Z,100.00
2023-07-17T04:28:57.547Z,100.00
2023-07-17T04:31:25.336Z,100.00
2023-07-17T04:33:52.253Z,100.00
2023-07-17T04:36:19.044Z,100.00
2023-07-17T04:38:45.883Z,100.00
2023-07-17T04:41:12.459Z,100.00
2023-07-17T04:43:40.310Z,100.00
2023-07-17T04:46:07.245Z,100.00
2023-07-17T04:48:33.912Z,100.00
2023-07-17T04:51:00.989Z,100.00
2023-07-17T04:53:28.037Z,100.00
2023-07-17T04:55:54.861Z,100.00
2023-07-17T04:58:21.566Z,100.00
2023-07-17T05:00:48.621Z,100.00
2023-07-17T05:03:17.075Z,100.00
2023-07-17T05:05:51.596Z,100.00
2023-07-17T05:08:21.400Z,100.00
2023-07-17T05:10:59.760Z,100.00
2023-07-17T05:13:27.218Z,100.00
2023-07-17T05:15:54.636Z,100.00
2023-07-17T05:18:21.980Z,100.00
2023-07-17T05:20:51.336Z,100.00
2023-07-17T05:23:18.814Z,100.00
2023-07-17T05:25:57.737Z,100.00
2023-07-17T05:28:25.708Z,100.00
2023-07-17T05:30:53.803Z,100.00
2023-07-17T05:33:20.862Z,100.00
2023-07-17T05:35:47.816Z,100.00
2023-07-17T05:38:14.771Z,100.00
2023-07-17T05:40:42.000Z,100.00
2023-07-17T05:43:10.381Z,100.00
2023-07-17T05:45:37.217Z,100.00
2023-07-17T05:48:05.931Z,100.00
2023-07-17T05:50:32.783Z,100.00
2023-07-17T05:52:59.487Z,100.00
2023-07-17T05:55:26.322Z,100.00
2023-07-17T05:57:53.067Z,100.00
2023-07-17T06:00:20.662Z,100.00
2023-07-17T06:02:48.487Z,100.00
2023-07-17T06:05:16.153Z,100.00
2023-07-17T06:07:43.135Z,100.00
2023-07-17T06:10:10.077Z,100.00
2023-07-17T06:12:36.785Z,100.00
2023-07-17T06:15:06.753Z,100.00
2023-07-17T06:17:33.956Z,100.00
2023-07-17T06:20:01.656Z,100.00
2023-07-17T06:22:28.273Z,100.00
2023-07-17T06:24:55.254Z,100.00
2023-07-17T06:27:21.898Z,100.00
2023-07-17T06:29:48.563Z,100.00
2023-07-17T06:32:15.267Z,100.00
2023-07-17T06:34:43.045Z,100.00
2023-07-17T06:37:10.124Z,100.00
2023-07-17T06:39:37.222Z,100.00
2023-07-17T06:42:05.892Z,100.00
2023-07-17T06:44:32.594Z,100.00
2023-07-17T06:46:59.237Z,100.00
2023-07-17T06:49:26.059Z,100.00
2023-07-17T06:51:53.026Z,100.00
2023-07-17T06:54:19.661Z,100.00
2023-07-17T06:56:47.106Z,100.00
2023-07-17T06:59:13.702Z,100.00
2023-07-17T07:01:40.258Z,100.00
2023-07-17T07:04:07.036Z,100.00
2023-07-17T07:06:34.086Z,100.00
2023-07-17T07:09:00.615Z,100.00
2023-07-17T07:11:27.247Z,100.00
2023-07-17T07:13:53.769Z,100.00
2023-07-17T07:16:20.612Z,100.00
2023-07-17T07:18:47.335Z,100.00
2023-07-17T07:21:14.066Z,100.00
2023-07-17T07:23:40.923Z,100.00
2023-07-17T07:26:07.379Z,100.00
2023-07-17T07:28:34.140Z,100.00
2023-07-17T07:31:01.859Z,100.00
2023-07-17T07:33:28.566Z,100.00
2023-07-17T07:35:55.394Z,100.00
2023-07-17T07:38:22.163Z,100.00
2023-07-17T07:40:49.288Z,100.00
2023-07-17T07:43:16.026Z,100.00
2023-07-17T07:45:43.930Z,100.00
2023-07-17T07:48:10.626Z,100.00
2023-07-17T07:50:37.336Z,100.00
2023-07-17T07:53:04.264Z,100.00
2023-07-17T07:55:30.924Z,100.00
2023-07-17T07:57:57.832Z,100.00
2023-07-17T08:00:24.842Z,100.00
2023-07-17T08:02:51.574Z,100.00
2023-07-17T08:05:19.572Z,100.00
2023-07-17T08:07:46.039Z,100.00
2023-07-17T08:10:12.551Z,100.00
2023-07-17T08:12:39.060Z,100.00
2023-07-17T08:15:09.211Z,100.00
2023-07-17T08:17:36.202Z,100.00
2023-07-17T08:20:04.915Z,100.00
2023-07-17T08:22:31.471Z,100.00
2023-07-17T08:24:58.235Z,100.00
2023-07-17T08:27:24.856Z,99.55
2023-07-17T08:29:51.960Z,100.00
2023-07-17T08:32:18.492Z,98.65
2023-07-17T08:34:45.072Z,97.24
2023-07-17T08:37:11.624Z,96.26
2023-07-17T08:39:38.156Z,98.86
2023-07-17T08:42:04.820Z,98.65
2023-07-17T08:44:31.939Z,98.84
2023-07-17T08:47:01.582Z,93.29
2023-07-17T08:49:28.442Z,92.30
2023-07-17T08:51:56.023Z,95.76
2023-07-17T08:56:52.873Z,99.66
2023-07-17T08:59:21.418Z,100.00
2023-07-17T09:01:51.220Z,97.70
2023-07-17T09:04:18.055Z,97.65
2023-07-17T09:06:44.562Z,94.47
2023-07-17T09:09:11.190Z,93.05
2023-07-17T09:11:37.790Z,96.66
2023-07-17T09:14:07.966Z,95.33
2023-07-17T09:16:34.736Z,96.94
2023-07-17T09:19:02.606Z,96.56
2023-07-17T09:21:29.491Z,93.91
2023-07-17T09:23:58.323Z,89.73
2023-07-17T09:26:26.541Z,90.98
2023-07-17T09:28:57.997Z,90.19
2023-07-17T09:31:28.651Z,93.38
2023-07-17T09:33:56.833Z,93.10
2023-07-17T09:36:24.061Z,97.56
2023-07-17T09:38:55.655Z,98.00
2023-07-17T09:41:26.791Z,96.31
2023-07-17T09:43:55.547Z,91.84
2023-07-17T09:46:22.145Z,89.55
2023-07-17T09:48:50.817Z,93.51
2023-07-17T09:51:19.171Z,88.59
2023-07-17T09:53:46.800Z,94.84
2023-07-17T09:56:16.630Z,93.05
2023-07-17T09:58:47.863Z,92.82
2023-07-17T10:01:24.287Z,91.75
2023-07-17T10:03:51.768Z,93.04
2023-07-17T10:06:20.433Z,87.71
2023-07-17T10:08:51.805Z,91.41
2023-07-17T10:11:19.626Z,93.03
2023-07-17T10:13:48.820Z,91.22
2023-07-17T10:16:20.212Z,91.56
2023-07-17T10:18:55.965Z,90.66
2023-07-17T10:21:23.695Z,88.91
2023-07-17T10:23:51.562Z,86.03
2023-07-17T10:26:21.221Z,93.03
2023-07-17T10:28:54.010Z,96.80
2023-07-17T10:31:25.671Z,95.94
2023-07-17T10:33:53.235Z,98.19
2023-07-17T10:36:37.126Z,100.00
2023-07-17T10:39:05.654Z,100.00
2023-07-17T10:41:32.758Z,98.34
2023-07-17T10:44:17.966Z,100.00
2023-07-17T10:46:47.319Z,100.00
2023-07-17T10:49:16.454Z,100.00
2023-07-17T10:51:51.846Z,100.00
2023-07-17T10:54:20.021Z,100.00
2023-07-17T10:56:49.126Z,100.00
2023-07-17T10:59:18.587Z,100.00
2023-07-17T11:01:46.982Z,98.50
2023-07-17T11:04:13.942Z,98.91
2023-07-17T11:06:41.259Z,99.31
2023-07-17T11:09:08.886Z,94.61
2023-07-17T11:11:35.934Z,94.47
2023-07-17T11:14:03.861Z,92.08
2023-07-17T11:16:30.383Z,92.25
2023-07-17T11:18:57.600Z,91.88
2023-07-17T11:21:26.843Z,90.20
2023-07-17T11:23:55.061Z,92.28
2023-07-17T11:26:25.577Z,92.20
2023-07-17T11:28:53.206Z,95.03
2023-07-17T11:31:24.628Z,86.02
2023-07-17T11:33:57.059Z,87.39
2023-07-17T11:36:23.782Z,98.69
2023-07-17T11:38:50.614Z,100.00
2023-07-17T11:41:17.512Z,100.00
2023-07-17T11:43:44.234Z,100.00
2023-07-17T11:46:12.296Z,100.00
2023-07-17T11:48:44.640Z,98.69
2023-07-17T11:51:11.245Z,99.36
2023-07-17T11:53:39.141Z,99.85
2023-07-17T11:56:05.952Z,93.23
2023-07-17T11:58:39.399Z,96.67
2023-07-17T12:01:07.798Z,98.66
2023-07-17T12:03:35.145Z,93.77
2023-07-17T12:06:02.192Z,92.15
2023-07-17T12:08:29.052Z,96.11
2023-07-17T12:10:56.097Z,92.89
2023-07-17T12:13:22.718Z,96.21
2023-07-17T12:15:49.459Z,98.13
2023-07-17T12:18:16.085Z,97.60
2023-07-17T12:20:42.672Z,97.33
2023-07-17T12:23:10.169Z,92.99
2023-07-17T12:25:40.897Z,98.15
2023-07-17T12:28:07.764Z,88.82
2023-07-17T12:30:34.863Z,83.39
2023-07-17T12:33:02.256Z,85.46
2023-07-17T12:35:30.537Z,83.56
2023-07-17T12:38:00.754Z,84.81
2023-07-17T12:40:28.172Z,91.69
2023-07-17T12:42:55.263Z,92.39
2023-07-17T12:45:22.600Z,90.49
2023-07-17T12:47:49.606Z,87.17
2023-07-17T12:50:16.518Z,87.98
2023-07-17T12:52:43.354Z,88.69
2023-07-17T12:55:10.400Z,85.63
2023-07-17T12:57:41.352Z,88.74
2023-07-17T13:00:09.279Z,82.81
2023-07-17T13:02:35.937Z,85.73
2023-07-17T13:05:05.740Z,85.17
2023-07-17T13:07:32.295Z,84.23
2023-07-17T13:09:59.586Z,89.11
2023-07-17T13:12:37.927Z,87.68
2023-07-17T13:15:10.224Z,85.77
2023-07-17T13:17:45.289Z,84.18
2023-07-17T13:20:12.569Z,82.95
2023-07-17T13:22:39.263Z,84.77
2023-07-17T13:25:06.364Z,87.05
2023-07-17T13:27:32.931Z,84.28
2023-07-17T13:29:59.550Z,86.37
2023-07-17T13:32:26.259Z,80.98
2023-07-17T13:34:52.819Z,80.84
2023-07-17T13:37:19.321Z,82.27
2023-07-17T13:39:46.162Z,81.66
2023-07-17T13:42:12.695Z,85.39
2023-07-17T13:44:39.285Z,86.50
2023-07-17T13:47:06.165Z,86.72
2023-07-17T13:49:35.081Z,81.11
2023-07-17T13:52:01.761Z,82.16
2023-07-17T13:54:28.369Z,83.25
2023-07-17T13:59:24.736Z,85.95
2023-07-17T14:01:51.274Z,90.14
2023-07-17T14:04:18.157Z,91.09
2023-07-17T14:06:45.146Z,86.88
2023-07-17T14:09:11.774Z,90.23
2023-07-17T14:11:41.845Z,84.03
2023-07-17T14:14:08.430Z,81.19
2023-07-17T14:16:35.099Z,84.77
2023-07-17T14:19:01.746Z,83.02
2023-07-17T14:21:28.747Z,84.49
2023-07-17T14:23:55.627Z,84.52
2023-07-17T14:26:22.360Z,87.51
2023-07-17T14:28:49.265Z,89.96
2023-07-17T14:31:15.871Z,91.16
2023-07-17T14:33:42.503Z,88.12
2023-07-17T14:36:09.046Z,90.27
2023-07-17T14:38:37.814Z,84.01
2023-07-17T14:41:05.869Z,88.16
2023-07-17T14:43:37.024Z,88.39
2023-07-17T14:46:04.120Z,85.98
2023-07-17T14:48:32.608Z,87.25
2023-07-17T14:51:00.272Z,92.89
2023-07-17T14:53:28.443Z,89.13
2023-07-17T14:55:55.316Z,90.25
2023-07-17T14:58:22.770Z,91.75
2023-07-17T15:00:49.451Z,89.69
2023-07-17T15:03:16.228Z,88.41
2023-07-17T15:05:42.861Z,86.76
2023-07-17T15:08:09.616Z,90.19
2023-07-17T15:10:36.242Z,93.24
2023-07-17T15:13:05.593Z,95.34
2023-07-17T15:15:33.501Z,91.31
2023-07-17T15:18:00.337Z,93.98
2023-07-17T15:20:27.187Z,95.26
2023-07-17T15:22:54.176Z,92.07
2023-07-17T15:25:21.134Z,87.57
2023-07-17T15:27:48.226Z,88.91
2023-07-17T15:30:14.992Z,88.60
2023-07-17T15:32:44.280Z,85.87
2023-07-17T15:35:12.093Z,88.72
2023-07-17T15:37:39.062Z,91.24
2023-07-17T15:40:07.627Z,93.34
2023-07-17T15:42:34.679Z,86.45
2023-07-17T15:45:04.648Z,77.04
2023-07-17T15:47:31.338Z,71.91
2023-07-17T15:49:58.518Z,75.15
2023-07-17T15:52:25.220Z,78.39
2023-07-17T15:54:52.261Z,79.28
2023-07-17T15:57:19.021Z,78.13
2023-07-17T15:59:45.664Z,78.69
2023-07-17T16:02:12.182Z,74.76
2023-07-17T16:04:38.802Z,74.39
2023-07-17T16:07:05.926Z,75.71
2023-07-17T16:09:32.590Z,77.50
2023-07-17T16:11:59.467Z,74.67
2023-07-17T16:14:26.095Z,75.32
2023-07-17T16:16:52.624Z,76.84
2023-07-17T16:19:19.220Z,72.89
2023-07-17T16:21:45.673Z,74.81
2023-07-17T16:24:12.439Z,79.39
2023-07-17T16:26:39.397Z,70.89
2023-07-17T16:29:06.734Z,70.68
2023-07-17T16:31:36.048Z,69.72
2023-07-17T16:34:04.874Z,69.34
2023-07-17T16:36:33.869Z,70.94
2023-07-17T16:39:00.477Z,73.83
2023-07-17T16:41:27.193Z,74.55
2023-07-17T16:43:53.688Z,71.37
2023-07-17T16:46:20.683Z,75.81
2023-07-17T16:48:48.173Z,78.61
2023-07-17T16:51:14.733Z,78.14
2023-07-17T16:53:42.800Z,77.81
2023-07-17T16:56:09.667Z,79.24
2023-07-17T16:58:37.259Z,78.87
2023-07-17T17:01:04.318Z,79.80
2023-07-17T17:03:31.136Z,73.45
2023-07-17T17:05:57.749Z,77.34
2023-07-17T17:08:24.544Z,73.12
2023-07-17T17:10:51.850Z,77.55
2023-07-17T17:13:18.949Z,78.82
2023-07-17T17:15:46.203Z,77.84
2023-07-17T17:18:14.831Z,79.38
2023-07-17T17:20:41.641Z,80.68
2023-07-17T17:23:08.759Z,82.65
2023-07-17T17:25:40.464Z,85.83
2023-07-17T17:28:08.047Z,86.71
2023-07-17T17:30:35.170Z,88.19
2023-07-17T17:33:02.245Z,89.13
2023-07-17T17:35:28.892Z,90.74
2023-07-17T17:37:55.477Z,88.58
2023-07-17T17:40:22.178Z,88.69
2023-07-17T17:42:51.025Z,90.81
2023-07-17T17:45:17.623Z,90.69
2023-07-17T17:47:44.255Z,88.76
2023-07-17T17:50:11.312Z,86.81
2023-07-17T17:52:37.836Z,89.84
2023-07-17T17:55:04.896Z,86.69
2023-07-17T17:57:31.673Z,90.84
2023-07-17T17:59:58.575Z,89.53
2023-07-17T18:02:25.239Z,89.80
2023-07-17T18:04:52.192Z,94.76
2023-07-17T18:07:18.976Z,96.88
2023-07-17T18:09:45.544Z,96.52
2023-07-17T18:12:12.123Z,98.75
2023-07-17T18:14:38.677Z,100.00
2023-07-17T18:17:06.581Z,100.00
2023-07-17T18:19:39.089Z,100.00
2023-07-17T18:22:07.556Z,100.00
2023-07-17T18:24:35.193Z,100.00
2023-07-17T18:27:03.043Z,100.00
2023-07-17T18:29:29.930Z,100.00
2023-07-17T18:31:56.919Z,100.00
2023-07-17T18:34:23.805Z,100.00
2023-07-17T18:36:51.518Z,100.00
2023-07-17T18:39:18.107Z,100.00
2023-07-17T18:41:45.081Z,100.00
2023-07-17T18:44:11.653Z,100.00
2023-07-17T18:46:39.380Z,100.00
2023-07-17T18:49:06.113Z,100.00
2023-07-17T18:51:35.158Z,100.00
2023-07-17T18:54:02.023Z,100.00
2023-07-17T18:56:29.021Z,100.00
2023-07-17T18:58:57.138Z,100.00
2023-07-17T19:01:27.159Z,100.00
2023-07-17T19:03:54.043Z,100.00
2023-07-17T19:06:21.169Z,100.00
2023-07-17T19:08:51.507Z,100.00
2023-07-17T19:11:19.435Z,100.00
2023-07-17T19:13:47.126Z,100.00
2023-07-17T19:16:13.820Z,100.00
2023-07-17T19:18:40.943Z,100.00
2023-07-17T19:21:07.748Z,100.00
2023-07-17T19:23:36.498Z,100.00
2023-07-17T19:26:05.314Z,100.00
2023-07-17T19:28:32.372Z,100.00
2023-07-17T19:30:59.941Z,100.00
2023-07-17T19:33:26.893Z,100.00
2023-07-17T19:35:53.542Z,100.00
2023-07-17T19:38:21.164Z,100.00
2023-07-17T19:40:48.041Z,100.00
2023-07-17T19:43:27.739Z,100.00
2023-07-17T19:45:56.144Z,100.00
2023-07-17T19:48:26.224Z,100.00
2023-07-17T19:50:52.746Z,100.00
2023-07-17T19:53:19.378Z,100.00
2023-07-17T19:55:46.103Z,100.00
2023-07-17T19:58:12.626Z,100.00
2023-07-17T20:00:39.205Z,100.00
2023-07-17T20:03:05.826Z,100.00
2023-07-17T20:05:32.652Z,100.00
2023-07-17T20:08:00.388Z,100.00
2023-07-17T20:10:26.989Z,100.00
2023-07-17T20:12:53.751Z,100.00
2023-07-17T20:15:22.459Z,100.00
2023-07-17T20:17:51.172Z,100.00
2023-07-17T20:20:19.377Z,100.00
2023-07-17T20:22:48.407Z,100.00
2023-07-17T20:25:15.212Z,100.00
2023-07-17T20:27:43.121Z,100.00
2023-07-17T20:30:11.814Z,100.00
2023-07-17T20:32:38.887Z,100.00
2023-07-17T20:35:25.263Z,100.00
2023-07-17T20:37:54.188Z,100.00
2023-07-17T20:40:24.475Z,100.00
2023-07-17T20:42:53.514Z,100.00
2023-07-17T20:45:32.861Z,100.00
2023-07-17T20:48:00.634Z,100.00
2023-07-17T20:50:38.895Z,100.00
2023-07-17T20:53:05.701Z,100.00
2023-07-17T20:55:35.769Z,100.00
2023-07-17T20:58:02.773Z,100.00
2023-07-17T21:00:29.696Z,100.00
2023-07-17T21:02:56.587Z,100.00
2023-07-17T21:05:25.240Z,100.00
2023-07-17T21:07:53.517Z,100.00
2023-07-17T21:10:20.346Z,100.00
2023-07-17T21:12:47.034Z,100.00
2023-07-17T21:15:13.874Z,100.00
2023-07-17T21:17:40.968Z,100.00
2023-07-17T21:20:08.629Z,100.00
2023-07-17T21:22:38.571Z,100.00
2023-07-17T21:25:05.900Z,100.00
2023-07-17T21:27:35.366Z,100.00
2023-07-17T21:30:04.577Z,100.00
2023-07-17T21:32:31.179Z,100.00
2023-07-17T21:34:57.973Z,100.00
2023-07-17T21:37:24.587Z,100.00
2023-07-17T21:39:51.198Z,100.00
2023-07-17T21:42:17.846Z,100.00
2023-07-17T21:44:44.351Z,100.00
2023-07-17T21:47:11.229Z,100.00
2023-07-17T21:49:39.106Z,100.00
2023-07-17T21:52:06.258Z,100.00
2023-07-17T21:54:33.271Z,100.00
2023-07-17T21:57:00.553Z,100.00
2023-07-17T21:59:27.070Z,100.00
2023-07-17T22:01:53.674Z,100.00
2023-07-17T22:04:21.344Z,100.00
2023-07-17T22:06:47.926Z,100.00
2023-07-17T22:09:15.104Z,100.00
2023-07-17T22:11:41.722Z,100.00
2023-07-17T22:14:08.567Z,100.00
2023-07-17T22:16:37.462Z,100.00
2023-07-17T22:19:04.136Z,100.00
2023-07-17T22:21:32.187Z,100.00
2023-07-17T22:23:58.769Z,100.00
2023-07-17T22:26:25.274Z,100.00
2023-07-17T22:28:52.328Z,100.00
2023-07-17T22:31:19.125Z,100.00
2023-07-17T22:33:45.846Z,100.00
2023-07-17T22:36:14.179Z,100.00
2023-07-17T22:38:40.739Z,100.00
2023-07-17T22:41:07.449Z,100.00
2023-07-17T22:43:34.209Z,100.00
2023-07-17T22:46:00.791Z,100.00
2023-07-17T22:48:29.108Z,100.00
2023-07-17T22:50:56.756Z,100.00
2023-07-17T22:53:23.996Z,100.00
2023-07-17T22:55:51.616Z,100.00
2023-07-17T22:58:18.348Z,100.00
2023-07-17T23:00:45.461Z,100.00
2023-07-17T23:03:12.983Z,100.00
2023-07-17T23:05:39.984Z,100.00
2023-07-17T23:08:08.789Z,100.00
2023-07-17T23:10:35.615Z,100.00
2023-07-17T23:13:03.452Z,100.00
2023-07-17T23:15:30.509Z,100.00
2023-07-17T23:17:57.200Z,100.00
2023-07-17T23:20:23.805Z,100.00
2023-07-17T23:22:50.961Z,100.00
2023-07-17T23:25:19.348Z,100.00
2023-07-17T23:27:45.994Z,100.00
2023-07-17T23:30:13.686Z,100.00
2023-07-17T23:32:41.015Z,100.00
2023-07-17T23:35:08.323Z,100.00
2023-07-17T23:37:34.883Z,100.00
2023-07-17T23:40:02.862Z,100.00
2023-07-17T23:42:30.152Z,100.00
2023-07-17T23:44:59.713Z,100.00
2023-07-17T23:47:26.362Z,100.00
2023-07-17T23:49:53.346Z,100.00
2023-07-17T23:52:21.730Z,100.00
2023-07-17T23:54:50.449Z,100.00
2023-07-17T23:57:17.887Z,100.00
2023-07-17T23:59:45.041Z,100.00
